Time;durP1;ratioP1;P1;durP2;ratioP2;P2;SDS_P1;SDS_P2;PMS_P1;PMS_P2;Temp;Humidity;BMP_temperature;BMP_pressure;BME280_temperature;BME280_humidity;BME280_pressure;Samples;Min_cycle;Max_cycle;Signal;HPM_P1;HPM_P2
2022/11/11 00:00:29;;;;;;;9.27;4.00;;;;;;;-145.14;100.00;70583.66;5020124;28;21043;-76
2022/11/11 00:02:55;;;;;;;12.77;4.50;;;;;;;-145.14;100.00;70583.66;5016091;28;20195;-75
2022/11/11 00:05:21;;;;;;;10.47;4.40;;;;;;;-145.14;100.00;70583.66;5002943;28;20185;-75
2022/11/11 00:07:47;;;;;;;9.73;3.50;;;;;;;-145.14;100.00;70583.66;5013918;28;20582;-76
2022/11/11 00:10:12;;;;;;;9.70;4.10;;;;;;;-145.14;100.00;70583.66;5017252;28;20452;-76
2022/11/11 00:12:38;;;;;;;10.10;4.77;;;;;;;-145.14;100.00;70583.66;5017264;28;20185;-76
2022/11/11 00:15:04;;;;;;;7.03;4.10;;;;;;;-145.14;100.00;70583.66;5015712;28;20282;-75
2022/11/11 00:25:41;;;;;;;10.13;4.83;;;;;;;-145.14;100.00;70583.66;5023209;28;20546;-76
2022/11/11 00:28:07;;;;;;;11.70;6.00;;;;;;;-145.14;100.00;70583.66;5017507;28;20514;-75
2022/11/11 00:30:32;;;;;;;13.43;5.33;;;;;;;-145.14;100.00;70583.66;5002042;28;20305;-76
2022/11/11 00:32:58;;;;;;;11.87;6.20;;;;;;;-145.14;100.00;70583.66;5015712;28;20211;-75
2022/11/11 00:38:09;;;;;;;10.20;5.60;;;;;;;-145.14;100.00;70583.66;5021704;28;20560;-76
2022/11/11 00:40:34;;;;;;;10.60;5.50;;;;;;;-145.14;100.00;70583.66;5016462;28;20472;-75
2022/11/11 00:43:00;;;;;;;14.37;6.40;;;;;;;-145.14;100.00;70583.66;5019102;28;20466;-76
2022/11/11 00:45:25;;;;;;;11.67;5.60;;;;;;;-145.14;100.00;70583.66;5004679;28;20567;-76
2022/11/11 00:53:22;;;;;;;11.37;6.00;;;;;;;-145.14;100.00;70583.66;5021795;28;20411;-76
2022/11/11 00:55:47;;;;;;;12.83;6.00;;;;;;;-145.14;100.00;70583.66;5015636;28;20439;-75
2022/11/11 00:58:15;;;;;;;13.40;6.20;;;;;;;-145.14;100.00;70583.66;5018790;28;20434;-75
2022/11/11 01:00:41;;;;;;;13.63;6.17;;;;;;;-145.14;100.00;70583.66;4994252;28;20204;-75
2022/11/11 01:03:07;;;;;;;13.07;5.50;;;;;;;-145.14;100.00;70583.66;5014346;28;20447;-75
2022/11/11 01:05:32;;;;;;;9.87;5.40;;;;;;;-145.14;100.00;70583.66;5017705;28;20205;-76
2022/11/11 01:07:58;;;;;;;13.33;6.60;;;;;;;-145.14;100.00;70583.66;5014946;28;20192;-76
2022/11/11 01:10:40;;;;;;;10.53;5.47;;;;;;;-145.14;100.00;70583.66;5024680;28;20692;-75
2022/11/11 01:13:29;;;;;;;9.80;4.90;;;;;;;-145.14;100.00;70583.66;5013288;28;20271;-76
2022/11/11 01:16:03;;;;;;;7.43;5.43;;;;;;;-145.14;100.00;70583.66;5030748;28;20423;-75
2022/11/11 01:18:29;;;;;;;13.63;5.90;;;;;;;-145.14;100.00;70583.66;5032136;28;20826;-76
2022/11/11 01:21:05;;;;;;;9.23;5.70;;;;;;;-145.14;100.00;70583.66;5009619;28;20521;-75
2022/11/11 01:23:33;;;;;;;9.07;5.43;;;;;;;-145.14;100.00;70583.66;5033504;28;20189;-76
2022/11/11 01:26:13;;;;;;;14.27;5.23;;;;;;;-145.14;100.00;70583.66;5019233;28;20463;-76
2022/11/11 01:28:38;;;;;;;11.70;5.80;;;;;;;-145.14;100.00;70583.66;5015062;28;20450;-75
2022/11/11 01:31:10;;;;;;;12.77;5.73;;;;;;;-145.14;100.00;70583.66;5019689;28;20466;-76
2022/11/11 01:33:35;;;;;;;11.47;6.10;;;;;;;-145.14;100.00;70583.66;5021408;28;20807;-75
2022/11/11 01:36:19;;;;;;;11.33;6.57;;;;;;;-145.14;100.00;70583.66;5002456;28;20439;-76
2022/11/11 01:38:49;;;;;;;11.67;5.97;;;;;;;-145.14;100.00;70583.66;5019327;28;20227;-76
2022/11/11 01:41:32;;;;;;;18.13;6.20;;;;;;;-145.14;100.00;70583.66;5002177;28;20538;-75
2022/11/11 01:44:10;;;;;;;11.03;6.10;;;;;;;-145.14;100.00;70583.66;5022288;28;20427;-76
2022/11/11 01:46:48;;;;;;;9.33;5.77;;;;;;;-145.14;100.00;70583.66;5018188;28;20434;-75
2022/11/11 01:49:36;;;;;;;19.90;7.20;;;;;;;-145.14;100.00;70583.66;5019269;28;20493;-76
2022/11/11 01:52:31;;;;;;;10.57;6.40;;;;;;;-145.14;100.00;70583.66;5010034;28;20467;-75
2022/11/11 01:55:24;;;;;;;13.60;6.20;;;;;;;-145.14;100.00;70583.66;4997383;28;20848;-76
2022/11/11 01:57:59;;;;;;;13.63;6.90;;;;;;;-145.14;100.00;70583.66;5000674;28;20427;-76
2022/11/11 02:00:25;;;;;;;13.63;6.37;;;;;;;-145.14;100.00;70583.66;5010599;28;20471;-76
2022/11/11 02:03:04;;;;;;;9.20;5.60;;;;;;;-145.14;100.00;70583.66;5014534;28;20449;-75
2022/11/11 02:05:42;;;;;;;10.57;6.23;;;;;;;-145.14;100.00;70583.66;5018179;28;20191;-75
2022/11/11 02:08:30;;;;;;;8.57;5.60;;;;;;;-145.14;100.00;70583.66;5008274;28;20821;-76
2022/11/11 02:11:00;;;;;;;11.40;6.00;;;;;;;-145.14;100.00;70583.66;5015913;28;20546;-75
2022/11/11 02:16:10;;;;;;;16.93;6.90;;;;;;;-145.14;100.00;70583.66;5014394;28;20481;-76
2022/11/11 02:18:35;;;;;;;15.90;7.20;;;;;;;-145.14;100.00;70583.66;5018479;28;20470;-75
2022/11/11 02:21:01;;;;;;;11.50;6.70;;;;;;;-145.14;100.00;70583.66;5007184;28;20595;-75
2022/11/11 02:23:39;;;;;;;13.63;6.73;;;;;;;-145.14;100.00;70583.66;5021593;28;20703;-75
2022/11/11 02:26:08;;;;;;;13.90;6.60;;;;;;;-145.14;100.00;70583.66;5023361;28;20189;-75
2022/11/11 02:28:35;;;;;;;12.00;6.10;;;;;;;-145.14;100.00;70583.66;5017733;28;20443;-75
2022/11/11 02:31:01;;;;;;;8.40;5.13;;;;;;;-145.14;100.00;70583.66;5001909;28;20561;-76
2022/11/11 02:33:26;;;;;;;13.80;6.80;;;;;;;-145.14;100.00;70583.66;5003212;28;20447;-76
2022/11/11 02:35:55;;;;;;;15.23;6.70;;;;;;;-145.14;100.00;70583.66;5012731;28;20543;-75
2022/11/11 02:38:22;;;;;;;9.93;5.80;;;;;;;-145.14;100.00;70583.66;5017797;28;20247;-75
2022/11/11 02:43:33;;;;;;;14.47;6.80;;;;;;;-145.14;100.00;70583.66;5006599;28;20459;-76
2022/11/11 02:46:01;;;;;;;18.23;6.67;;;;;;;-145.14;100.00;70583.66;5018689;28;20440;-76
2022/11/11 02:48:27;;;;;;;13.90;6.97;;;;;;;-145.14;100.00;70583.66;4996258;28;20276;-75
2022/11/11 02:50:53;;;;;;;10.73;6.80;;;;;;;-145.14;100.00;70583.66;5004693;28;20465;-76
2022/11/11 02:53:19;;;;;;;11.17;6.40;;;;;;;-145.14;100.00;70583.66;5011818;28;20439;-75
2022/11/11 02:55:45;;;;;;;11.53;6.43;;;;;;;-145.14;100.00;70583.66;5025259;28;20188;-75
2022/11/11 02:58:10;;;;;;;15.17;6.93;;;;;;;-145.14;100.00;70583.66;5025466;28;20817;-75
2022/11/11 03:00:36;;;;;;;14.40;7.30;;;;;;;-145.14;100.00;70583.66;5021921;28;20221;-76
2022/11/11 03:03:01;;;;;;;10.63;5.83;;;;;;;-145.14;100.00;70583.66;5025196;28;20446;-76
2022/11/11 03:05:27;;;;;;;17.33;7.57;;;;;;;-145.14;100.00;70583.66;5021368;28;20667;-76
2022/11/11 03:07:52;;;;;;;17.77;7.40;;;;;;;-145.14;100.00;70583.66;5021992;28;20204;-76
2022/11/11 03:10:18;;;;;;;10.57;7.07;;;;;;;-145.14;100.00;70583.66;5018285;28;20725;-76
2022/11/11 03:12:43;;;;;;;13.00;6.60;;;;;;;-145.14;100.00;70583.66;5018392;28;20204;-75
2022/11/11 03:15:09;;;;;;;16.47;7.17;;;;;;;-145.14;100.00;70583.66;5006247;28;20185;-76
2022/11/11 03:17:40;;;;;;;16.07;7.90;;;;;;;-145.14;100.00;70583.66;5016395;28;20185;-76
2022/11/11 03:23:06;;;;;;;16.90;6.30;;;;;;;-145.14;100.00;70583.66;5023093;28;21059;-76
2022/11/11 03:25:39;;;;;;;12.03;6.40;;;;;;;-145.14;100.00;70583.66;5017239;28;21045;-75
2022/11/11 03:28:14;;;;;;;10.70;6.77;;;;;;;-145.14;100.00;70583.66;4994786;28;20451;-75
2022/11/11 03:30:42;;;;;;;14.93;7.73;;;;;;;-145.14;100.00;70583.66;4999031;28;20535;-75
2022/11/11 03:33:08;;;;;;;13.00;7.87;;;;;;;-145.14;100.00;70583.66;4994137;28;20435;-76
2022/11/11 03:35:35;;;;;;;16.07;8.53;;;;;;;-145.14;100.00;70583.66;5013975;28;20447;-75
2022/11/11 03:40:47;;;;;;;13.10;9.33;;;;;;;-145.14;100.00;70583.66;5018636;28;20481;-75
2022/11/11 03:43:15;;;;;;;13.83;8.73;;;;;;;-145.14;100.00;70583.66;5016641;28;20451;-76
2022/11/11 03:45:41;;;;;;;14.23;10.33;;;;;;;-145.14;100.00;70583.66;5015516;28;20442;-76
2022/11/11 03:48:07;;;;;;;17.13;9.30;;;;;;;-145.14;100.00;70583.66;4997502;28;20450;-76
2022/11/11 03:50:33;;;;;;;16.40;10.63;;;;;;;-145.14;100.00;70583.66;4993590;28;20454;-75
2022/11/11 03:52:59;;;;;;;19.60;10.87;;;;;;;-145.14;100.00;70583.66;4997218;28;20199;-75
2022/11/11 03:55:24;;;;;;;11.73;9.50;;;;;;;-145.14;100.00;70583.66;5011030;28;20450;-75
2022/11/11 03:57:50;;;;;;;19.03;12.10;;;;;;;-145.14;100.00;70583.66;5009834;28;20200;-75
2022/11/11 04:00:19;;;;;;;15.33;10.70;;;;;;;-145.14;100.00;70583.66;4992197;28;21957;-76
2022/11/11 04:11:05;;;;;;;14.33;11.30;;;;;;;-145.14;100.00;70583.66;5003484;28;20472;-76
2022/11/11 04:16:15;;;;;;;18.80;12.37;;;;;;;-145.14;100.00;70583.66;5003222;28;20723;-75
2022/11/11 04:21:43;;;;;;;14.70;11.27;;;;;;;-145.14;100.00;70583.66;5010008;28;20281;-76
2022/11/11 04:27:09;;;;;;;19.37;13.03;;;;;;;-145.14;100.00;70583.66;5002314;28;20469;-75
2022/11/11 04:29:34;;;;;;;24.47;13.47;;;;;;;-145.14;100.00;70583.66;5008812;28;20467;-76
2022/11/11 04:34:48;;;;;;;20.60;14.53;;;;;;;-145.14;100.00;70583.66;5006478;28;20254;-76
2022/11/11 04:37:15;;;;;;;20.30;13.40;;;;;;;-145.14;100.00;70583.66;5007695;28;20446;-75
2022/11/11 04:42:26;;;;;;;18.63;13.43;;;;;;;-145.14;100.00;70583.66;5008460;28;20437;-75
2022/11/11 04:47:36;;;;;;;19.27;13.40;;;;;;;-145.14;100.00;70583.66;5011521;28;20484;-75
2022/11/11 04:50:03;;;;;;;19.03;15.23;;;;;;;-145.14;100.00;70583.66;5012778;28;20530;-75
2022/11/11 04:52:28;;;;;;;18.70;15.27;;;;;;;-145.14;100.00;70583.66;5008143;28;20188;-76
2022/11/11 04:57:46;;;;;;;19.13;13.37;;;;;;;-145.14;100.00;70583.66;5010373;28;20397;-75
2022/11/11 05:00:15;;;;;;;21.50;14.47;;;;;;;-145.14;100.00;70583.66;5011472;28;21017;-76
2022/11/11 05:03:26;;;;;;;17.77;13.53;;;;;;;-145.14;100.00;70583.66;5005136;28;20462;-76
2022/11/11 05:05:27;;;;;;;22.10;15.47;;;;;;;-145.14;100.00;70583.66;4995923;28;20491;-76
2022/11/11 05:10:37;;;;;;;18.27;13.57;;;;;;;-145.14;100.00;70583.66;5010429;28;20502;-75
2022/11/11 05:21:24;;;;;;;25.97;16.80;;;;;;;-145.14;100.00;70583.66;5011228;28;21368;-75
2022/11/11 05:26:34;;;;;;;23.47;15.70;;;;;;;-145.14;100.00;70583.66;5010941;28;20446;-75
2022/11/11 05:29:00;;;;;;;18.90;14.60;;;;;;;-145.14;100.00;70583.66;4985834;28;20435;-75
2022/11/11 05:31:27;;;;;;;24.03;14.50;;;;;;;-145.14;100.00;70583.66;4986995;28;20273;-75
2022/11/11 05:33:52;;;;;;;20.10;14.03;;;;;;;-145.14;100.00;70583.66;5006709;28;20196;-75
2022/11/11 05:36:17;;;;;;;19.60;15.97;;;;;;;-145.14;100.00;70583.66;5005677;28;20826;-76
2022/11/11 05:38:43;;;;;;;19.90;14.63;;;;;;;-145.14;100.00;70583.66;5005511;28;20238;-76
2022/11/11 05:41:11;;;;;;;19.30;15.07;;;;;;;-145.14;100.00;70583.66;5006653;28;20212;-76
2022/11/11 05:43:36;;;;;;;22.27;15.93;;;;;;;-145.14;100.00;70583.66;5002816;28;20188;-76
2022/11/11 05:46:03;;;;;;;22.20;16.37;;;;;;;-145.14;100.00;70583.66;5015179;28;20500;-76
2022/11/11 05:48:29;;;;;;;25.60;16.77;;;;;;;-145.14;100.00;70583.66;4992761;28;20184;-76
2022/11/11 05:50:57;;;;;;;21.43;16.43;;;;;;;-145.14;100.00;70583.66;5006647;28;20454;-76
2022/11/11 05:53:23;;;;;;;22.23;17.37;;;;;;;-145.14;100.00;70583.66;4994525;28;20451;-76
2022/11/11 05:55:51;;;;;;;20.90;16.07;;;;;;;-145.14;100.00;70583.66;5008124;28;20454;-75
2022/11/11 05:58:18;;;;;;;20.37;16.63;;;;;;;-145.14;100.00;70583.66;5030581;22;20312;-80
2022/11/11 06:00:44;;;;;;;21.00;16.60;;;;;;;-145.14;100.00;70583.66;5003926;28;20525;-80
2022/11/11 06:03:09;;;;;;;21.87;16.30;;;;;;;-145.14;100.00;70583.66;5004542;28;20522;-79
2022/11/11 06:05:36;;;;;;;22.23;17.23;;;;;;;-145.14;100.00;70583.66;5008093;28;20442;-80
2022/11/11 06:08:01;;;;;;;18.43;14.93;;;;;;;-145.14;100.00;70583.66;4998825;28;20218;-81
2022/11/11 06:10:29;;;;;;;20.67;15.47;;;;;;;-145.14;100.00;70583.66;5006496;28;20734;-80
2022/11/11 06:13:01;;;;;;;23.13;17.23;;;;;;;-145.14;100.00;70583.66;5003700;28;20188;-81
2022/11/11 06:15:27;;;;;;;21.70;16.93;;;;;;;-145.14;100.00;70583.66;5007528;28;20447;-77
2022/11/11 06:17:53;;;;;;;22.87;18.10;;;;;;;-145.14;100.00;70583.66;5001423;28;20965;-78
2022/11/11 06:20:19;;;;;;;21.13;17.13;;;;;;;-145.14;100.00;70583.66;5018863;28;20701;-79
2022/11/11 06:22:56;;;;;;;25.83;18.50;;;;;;;-145.14;100.00;70583.66;5009660;28;20444;-79
2022/11/11 06:28:15;;;;;;;23.97;18.30;;;;;;;-145.14;100.00;70583.66;5022367;28;20542;-78
2022/11/11 06:30:40;;;;;;;23.37;17.33;;;;;;;-145.14;100.00;70583.66;5013872;28;20436;-76
2022/11/11 06:33:07;;;;;;;21.93;16.90;;;;;;;-145.14;100.00;70583.66;5019440;28;20450;-79
2022/11/11 06:35:34;;;;;;;24.53;18.27;;;;;;;-145.14;100.00;70583.66;5013393;28;20238;-79
2022/11/11 06:38:00;;;;;;;25.67;16.07;;;;;;;-145.14;100.00;70583.66;5019161;28;20520;-79
2022/11/11 06:40:27;;;;;;;27.03;16.90;;;;;;;-145.14;100.00;70583.66;5019675;28;20545;-79
2022/11/11 06:42:53;;;;;;;25.80;17.93;;;;;;;-145.14;100.00;70583.66;4999626;28;20443;-80
2022/11/11 06:45:18;;;;;;;19.20;15.20;;;;;;;-145.14;100.00;70583.66;5000187;28;20479;-79
2022/11/11 06:47:44;;;;;;;28.87;17.10;;;;;;;-145.14;100.00;70583.66;5000976;28;20455;-80
2022/11/11 06:50:09;;;;;;;22.47;16.77;;;;;;;-145.14;100.00;70583.66;5018616;28;20180;-80
2022/11/11 06:52:35;;;;;;;22.30;16.67;;;;;;;-145.14;100.00;70583.66;5018119;28;20201;-78
2022/11/11 06:55:00;;;;;;;28.57;16.07;;;;;;;-145.14;100.00;70583.66;5012291;28;20670;-79
2022/11/11 06:57:26;;;;;;;24.47;17.40;;;;;;;-145.14;100.00;70583.66;5018894;28;20190;-78
2022/11/11 06:59:51;;;;;;;28.57;17.13;;;;;;;-145.14;100.00;70583.66;5018771;28;20204;-80
2022/11/11 07:02:17;;;;;;;24.90;17.77;;;;;;;-145.14;100.00;70583.66;5001046;28;20195;-79
2022/11/11 07:04:42;;;;;;;19.47;15.40;;;;;;;-145.14;100.00;70583.66;5014784;28;20215;-79
2022/11/11 07:07:08;;;;;;;19.70;14.93;;;;;;;-145.14;100.00;70583.66;5020564;28;20656;-79
2022/11/11 07:09:33;;;;;;;26.67;16.20;;;;;;;-145.14;100.00;70583.66;5015859;28;20243;-80
2022/11/11 07:11:59;;;;;;;19.40;15.53;;;;;;;-145.14;100.00;70583.66;5013354;28;20184;-79
2022/11/11 07:14:26;;;;;;;17.70;14.80;;;;;;;-145.14;100.00;70583.66;4996734;28;20279;-78
2022/11/11 07:16:51;;;;;;;28.73;16.33;;;;;;;-145.14;100.00;70583.66;5001619;28;20193;-81
2022/11/11 07:19:17;;;;;;;21.00;16.03;;;;;;;-145.14;100.00;70583.66;5015838;28;20467;-82
2022/11/11 07:21:42;;;;;;;19.20;15.10;;;;;;;-145.14;100.00;70583.66;5013525;28;25692;-79
2022/11/11 07:24:08;;;;;;;27.23;17.17;;;;;;;-145.14;100.00;70583.66;5017537;28;20288;-81
2022/11/11 07:26:33;;;;;;;21.90;15.90;;;;;;;-145.14;100.00;70583.66;5018515;28;20637;-80
2022/11/11 07:28:59;;;;;;;23.07;16.03;;;;;;;-145.14;100.00;70583.66;5000141;28;20243;-79
2022/11/11 07:31:24;;;;;;;18.90;15.80;;;;;;;-145.14;100.00;70583.66;5016749;28;20624;-80
2022/11/11 07:33:50;;;;;;;18.47;15.33;;;;;;;-145.14;100.00;70583.66;5016936;28;20184;-80
2022/11/11 07:36:15;;;;;;;20.03;15.20;;;;;;;-145.14;100.00;70583.66;5019822;28;20562;-81
2022/11/11 07:38:41;;;;;;;22.40;15.27;;;;;;;-145.14;100.00;70583.66;5023286;28;20704;-79
2022/11/11 07:41:06;;;;;;;18.53;15.63;;;;;;;-145.14;100.00;70583.66;5016012;28;20217;-80
2022/11/11 07:43:32;;;;;;;18.43;14.40;;;;;;;-145.14;100.00;70583.66;5011916;28;20234;-80
2022/11/11 07:45:57;;;;;;;21.83;15.50;;;;;;;-145.14;100.00;70583.66;5023474;28;20625;-78
2022/11/11 07:48:23;;;;;;;19.80;13.70;;;;;;;-145.14;100.00;70583.66;5017661;28;20299;-79
2022/11/11 07:50:53;;;;;;;20.90;15.97;;;;;;;-145.14;100.00;70583.66;5021948;28;20193;-80
2022/11/11 07:53:18;;;;;;;24.70;14.80;;;;;;;-145.14;100.00;70583.66;5016464;28;20199;-79
2022/11/11 07:55:45;;;;;;;22.83;15.00;;;;;;;-145.14;100.00;70583.66;5012060;28;20444;-79
2022/11/11 07:58:10;;;;;;;24.47;14.07;;;;;;;-145.14;100.00;70583.66;5020003;28;20204;-79
2022/11/11 08:00:36;;;;;;;22.60;16.23;;;;;;;-145.14;100.00;70583.66;5022504;28;21007;-79
2022/11/11 08:03:01;;;;;;;21.80;14.20;;;;;;;-145.14;100.00;70583.66;5011216;28;20683;-79
2022/11/11 08:05:27;;;;;;;22.00;15.30;;;;;;;-145.14;100.00;70583.66;5023882;28;20664;-79
2022/11/11 08:07:52;;;;;;;19.80;15.93;;;;;;;-145.14;100.00;70583.66;5019737;28;20790;-79
2022/11/11 08:10:18;;;;;;;21.63;15.07;;;;;;;-145.14;100.00;70583.66;5020178;28;20184;-79
2022/11/11 08:15:28;;;;;;;19.90;14.03;;;;;;;-145.14;100.00;70583.66;5012526;28;20454;-79
2022/11/11 08:17:53;;;;;;;20.73;13.97;;;;;;;-145.14;100.00;70583.66;5017498;28;20467;-80
2022/11/11 08:20:19;;;;;;;21.60;15.00;;;;;;;-145.14;100.00;70583.66;5016059;28;20215;-80
2022/11/11 08:22:44;;;;;;;22.17;14.40;;;;;;;-145.14;100.00;70583.66;5014609;28;20231;-78
2022/11/11 08:25:15;;;;;;;26.53;14.50;;;;;;;-145.14;100.00;70583.66;5018723;28;20658;-80
2022/11/11 08:27:41;;;;;;;20.30;15.07;;;;;;;-145.14;100.00;70583.66;5019339;28;20204;-80
2022/11/11 08:30:08;;;;;;;25.87;15.80;;;;;;;-145.14;100.00;70583.66;5012954;28;20443;-82
2022/11/11 08:32:34;;;;;;;30.90;17.30;;;;;;;-145.14;100.00;70583.66;5017982;28;20180;-79
2022/11/11 08:34:59;;;;;;;20.13;14.77;;;;;;;-145.14;100.00;70583.66;5017722;28;20437;-79
2022/11/11 08:37:26;;;;;;;17.33;13.70;;;;;;;-145.14;100.00;70583.66;5019523;28;20180;-79
2022/11/11 08:39:51;;;;;;;19.10;13.50;;;;;;;-145.14;100.00;70583.66;5019497;28;20220;-81
2022/11/11 08:42:17;;;;;;;18.47;14.03;;;;;;;-145.14;100.00;70583.66;4981627;28;20454;-78
2022/11/11 08:44:42;;;;;;;17.80;14.07;;;;;;;-145.14;100.00;70583.66;5002864;28;20212;-80
2022/11/11 08:47:08;;;;;;;19.77;13.97;;;;;;;-145.14;100.00;70583.66;5020295;28;21119;-81
2022/11/11 08:49:34;;;;;;;25.40;14.80;;;;;;;-145.14;100.00;70583.66;5017742;28;20613;-79
2022/11/11 08:52:00;;;;;;;20.97;13.67;;;;;;;-145.14;100.00;70583.66;5017262;28;20184;-79
2022/11/11 08:54:26;;;;;;;23.17;15.03;;;;;;;-145.14;100.00;70583.66;5018868;28;20658;-79
2022/11/11 08:56:51;;;;;;;23.50;13.77;;;;;;;-145.14;100.00;70583.66;5023053;28;20431;-81
2022/11/11 08:59:17;;;;;;;24.60;15.17;;;;;;;-145.14;100.00;70583.66;5018949;28;20209;-80
2022/11/11 09:01:42;;;;;;;23.43;14.90;;;;;;;-145.14;100.00;70583.66;5015669;28;20288;-80
2022/11/11 09:04:07;;;;;;;18.43;13.63;;;;;;;-145.14;100.00;70583.66;5019245;28;20219;-80
2022/11/11 09:06:33;;;;;;;22.90;14.03;;;;;;;-145.14;100.00;70583.66;5001933;28;20210;-80
2022/11/11 09:08:58;;;;;;;18.33;14.07;;;;;;;-145.14;100.00;70583.66;5018266;28;20205;-79
2022/11/11 09:11:24;;;;;;;19.23;14.50;;;;;;;-145.14;100.00;70583.66;5006999;28;20677;-79
2022/11/11 09:13:49;;;;;;;18.40;13.37;;;;;;;-145.14;100.00;70583.66;5018268;28;20189;-81
2022/11/11 09:16:15;;;;;;;15.63;12.07;;;;;;;-145.14;100.00;70583.66;5016268;28;20181;-79
2022/11/11 09:18:41;;;;;;;19.47;14.77;;;;;;;-145.14;100.00;70583.66;5021120;28;20472;-79
2022/11/11 09:21:06;;;;;;;20.17;14.53;;;;;;;-145.14;100.00;70583.66;5000907;28;20559;-80
2022/11/11 09:23:32;;;;;;;19.27;14.30;;;;;;;-145.14;100.00;70583.66;5022332;28;20188;-79
2022/11/11 09:26:02;;;;;;;21.77;15.37;;;;;;;-145.14;100.00;70583.66;5023045;28;20187;-80
2022/11/11 09:28:30;;;;;;;15.93;12.37;;;;;;;-145.14;100.00;70583.66;5005896;28;20216;-83
2022/11/11 09:30:59;;;;;;;20.23;13.53;;;;;;;-145.14;100.00;70583.66;5008858;28;20440;-80
2022/11/11 09:33:24;;;;;;;17.87;13.33;;;;;;;-145.14;100.00;70583.66;5018984;28;20839;-80
2022/11/11 09:35:50;;;;;;;18.83;12.60;;;;;;;-145.14;100.00;70583.66;5021613;28;20982;-80
2022/11/11 09:38:15;;;;;;;14.80;12.10;;;;;;;-145.14;100.00;70583.66;5005872;28;20192;-79
2022/11/11 09:41:06;;;;;;;18.60;12.43;;;;;;;-145.14;100.00;70583.66;5009199;28;20237;-79
2022/11/11 09:43:58;;;;;;;20.20;12.80;;;;;;;-145.14;100.00;70583.66;5015447;28;20327;-79
2022/11/11 09:46:43;;;;;;;17.77;11.67;;;;;;;-145.14;100.00;70583.66;5021721;28;20510;-80
2022/11/11 09:49:22;;;;;;;18.07;11.40;;;;;;;-145.14;100.00;70583.66;5004753;28;20471;-79
2022/11/11 09:52:13;;;;;;;18.50;12.27;;;;;;;-145.14;100.00;70583.66;5017794;28;21015;-79
2022/11/11 09:54:44;;;;;;;23.13;14.83;;;;;;;-145.14;100.00;70583.66;5018747;28;20554;-80
2022/11/11 09:57:18;;;;;;;18.57;14.17;;;;;;;-145.14;100.00;70583.66;5018598;28;20450;-80
2022/11/11 09:59:51;;;;;;;18.70;14.83;;;;;;;-145.14;100.00;70583.66;5017028;28;20469;-78
2022/11/11 10:02:37;;;;;;;16.20;13.47;;;;;;;-145.14;100.00;70583.66;5017702;28;20431;-78
2022/11/11 10:05:11;;;;;;;23.17;12.50;;;;;;;-145.14;100.00;70583.66;5013740;28;20439;-78
2022/11/11 10:08:03;;;;;;;21.30;12.40;;;;;;;-145.14;100.00;70583.66;5000564;28;20697;-79
2022/11/11 10:10:49;;;;;;;17.00;11.50;;;;;;;-145.14;100.00;70583.66;5012870;28;20489;-79
2022/11/11 10:13:18;;;;;;;17.00;11.90;;;;;;;-145.14;100.00;70583.66;5019490;28;20435;-78
2022/11/11 10:16:20;;;;;;;17.17;11.60;;;;;;;-145.14;100.00;70583.66;5012060;28;20447;-78
2022/11/11 10:18:55;;;;;;;18.43;12.33;;;;;;;-145.14;100.00;70583.66;4978389;28;20973;-79
2022/11/11 10:21:45;;;;;;;17.53;12.00;;;;;;;-145.14;100.00;70583.66;4998564;28;20489;-79
2022/11/11 10:24:16;;;;;;;17.30;12.47;;;;;;;-145.14;100.00;70583.66;5011099;28;20455;-80
2022/11/11 10:26:44;;;;;;;15.67;11.60;;;;;;;-145.14;100.00;70583.66;5016146;28;20439;-78
2022/11/11 10:29:17;;;;;;;16.63;11.77;;;;;;;-145.14;100.00;70583.66;5005001;28;20552;-78
2022/11/11 10:31:44;;;;;;;15.70;10.80;;;;;;;-145.14;100.00;70583.66;5020136;28;20431;-81
2022/11/11 10:34:12;;;;;;;17.93;11.07;;;;;;;-145.14;100.00;70583.66;5006494;28;20451;-77
2022/11/11 10:36:45;;;;;;;13.90;11.50;;;;;;;-145.14;100.00;70583.66;5014461;28;20451;-79
2022/11/11 10:39:16;;;;;;;17.60;11.40;;;;;;;-145.14;100.00;70583.66;5019718;28;20466;-80
2022/11/11 10:41:46;;;;;;;13.87;10.87;;;;;;;-145.14;100.00;70583.66;5010067;28;20944;-78
2022/11/11 10:44:24;;;;;;;17.23;11.27;;;;;;;-145.14;100.00;70583.66;5011731;28;20526;-79
2022/11/11 10:47:10;;;;;;;20.83;12.93;;;;;;;-145.14;100.00;70583.66;5019984;28;21039;-79
2022/11/11 10:50:01;;;;;;;15.27;11.03;;;;;;;-145.14;100.00;70583.66;5017632;28;20470;-78
2022/11/11 10:52:40;;;;;;;18.10;11.60;;;;;;;-145.14;100.00;70583.66;5019384;28;20449;-78
2022/11/11 10:55:19;;;;;;;13.93;11.33;;;;;;;-145.14;100.00;70583.66;5004575;28;20440;-79
2022/11/11 10:58:11;;;;;;;15.63;11.17;;;;;;;-145.14;100.00;70583.66;5017985;28;20474;-79
2022/11/11 11:00:38;;;;;;;13.80;10.03;;;;;;;-145.14;100.00;70583.66;5018183;28;20478;-80
2022/11/11 11:03:12;;;;;;;17.20;11.00;;;;;;;-145.14;100.00;70583.66;5019030;28;20420;-80
2022/11/11 11:05:46;;;;;;;14.53;11.03;;;;;;;-145.14;100.00;70583.66;5021284;28;20419;-79
2022/11/11 11:08:18;;;;;;;14.23;10.87;;;;;;;-145.14;100.00;70583.66;4999862;28;21012;-80
2022/11/11 11:10:54;;;;;;;13.50;10.37;;;;;;;-145.14;100.00;70583.66;5015829;28;20485;-80
2022/11/11 11:13:26;;;;;;;16.00;11.50;;;;;;;-145.14;100.00;70583.66;5023625;28;20485;-78
2022/11/11 11:15:57;;;;;;;12.73;9.70;;;;;;;-145.14;100.00;70583.66;5020750;28;20446;-79
2022/11/11 11:18:24;;;;;;;13.27;10.00;;;;;;;-145.14;100.00;70583.66;5023649;28;20640;-80
2022/11/11 11:20:57;;;;;;;13.10;10.00;;;;;;;-145.14;100.00;70583.66;5024735;28;20469;-81
2022/11/11 11:23:42;;;;;;;13.40;9.77;;;;;;;-145.14;100.00;70583.66;5024349;28;20515;-80
2022/11/11 11:26:14;;;;;;;11.80;9.80;;;;;;;-145.14;100.00;70583.66;5017030;28;20472;-80
2022/11/11 11:28:57;;;;;;;13.40;10.43;;;;;;;-145.14;100.00;70583.66;5020908;28;20960;-79
2022/11/11 11:31:36;;;;;;;13.20;9.40;;;;;;;-145.14;100.00;70583.66;5022603;28;20431;-77
2022/11/11 11:34:02;;;;;;;12.00;10.70;;;;;;;-145.14;100.00;70583.66;5019904;28;20477;-78
2022/11/11 11:36:28;;;;;;;20.57;11.83;;;;;;;-145.14;100.00;70583.66;5024473;28;20442;-78
2022/11/11 11:38:53;;;;;;;13.87;11.67;;;;;;;-145.14;100.00;70583.66;5023235;28;20435;-79
2022/11/11 11:41:39;;;;;;;12.97;10.07;;;;;;;-145.14;100.00;70583.66;5024497;28;20288;-79
2022/11/11 11:44:28;;;;;;;15.63;10.13;;;;;;;-145.14;100.00;70583.66;5022525;28;20203;-79
2022/11/11 11:47:13;;;;;;;14.57;10.27;;;;;;;-145.14;100.00;70583.66;5025049;28;20408;-81
2022/11/11 11:50:04;;;;;;;13.10;11.63;;;;;;;-145.14;100.00;70583.66;5020145;28;20841;-79
2022/11/11 11:52:50;;;;;;;13.53;10.63;;;;;;;-145.14;100.00;70583.66;5023402;28;20431;-83
2022/11/11 11:55:22;;;;;;;13.47;10.50;;;;;;;-145.14;100.00;70583.66;5021927;28;20454;-81
2022/11/11 11:57:51;;;;;;;14.40;10.83;;;;;;;-145.14;100.00;70583.66;5020430;28;20469;-79
2022/11/11 12:00:22;;;;;;;12.33;9.90;;;;;;;-145.14;100.00;70583.66;5062081;22;20500;-72
2022/11/11 12:02:56;;;;;;;13.07;10.00;;;;;;;-145.14;100.00;70583.66;5025278;28;20443;-71
2022/11/11 12:05:40;;;;;;;11.73;10.40;;;;;;;-145.14;100.00;70583.66;5024682;28;20436;-71
2022/11/11 12:08:33;;;;;;;11.70;9.73;;;;;;;-145.14;100.00;70583.66;5023960;28;20450;-71
2022/11/11 12:11:23;;;;;;;11.47;9.87;;;;;;;-145.14;100.00;70583.66;5041078;28;20442;-71
2022/11/11 12:14:04;;;;;;;12.23;10.00;;;;;;;-145.14;100.00;70583.66;5025403;28;20506;-71
2022/11/11 12:16:50;;;;;;;13.83;10.40;;;;;;;-145.14;100.00;70583.66;5023989;28;20516;-72
2022/11/11 12:19:41;;;;;;;8.83;8.00;;;;;;;-145.14;100.00;70583.66;5025771;28;20438;-72
2022/11/11 12:22:44;;;;;;;13.40;9.87;;;;;;;-145.14;100.00;70583.66;5026227;28;20474;-72
2022/11/11 12:25:36;;;;;;;13.30;10.40;;;;;;;-145.14;100.00;70583.66;5039453;28;20456;-72